sensor_id;sensor_type;location;lat;lon;timestamp;P1;durP1;ratioP1;P2;durP2;ratioP2
80133;SDS011;69443;51.442;10.564;2023-04-24T00:00:32;0.98;;;0.65;;
80133;SDS011;69443;51.442;10.564;2023-04-24T00:02:58;0.80;;;0.75;;
80133;SDS011;69443;51.442;10.564;2023-04-24T00:05:23;1.00;;;0.60;;
80133;SDS011;69443;51.442;10.564;2023-04-24T00:07:49;1.10;;;0.70;;
80133;SDS011;69443;51.442;10.564;2023-04-24T00:10:17;0.85;;;0.68;;
80133;SDS011;69443;51.442;10.564;2023-04-24T00:12:43;0.50;;;0.50;;
80133;SDS011;69443;51.442;10.564;2023-04-24T00:15:09;0.60;;;0.60;;
80133;SDS011;69443;51.442;10.564;2023-04-24T00:17:35;1.38;;;0.60;;
80133;SDS011;69443;51.442;10.564;2023-04-24T00:20:00;1.98;;;0.60;;
80133;SDS011;69443;51.442;10.564;2023-04-24T00:22:29;0.77;;;0.77;;
80133;SDS011;69443;51.442;10.564;2023-04-24T00:24:55;2.78;;;1.00;;
80133;SDS011;69443;51.442;10.564;2023-04-24T00:27:21;0.90;;;0.68;;
80133;SDS011;69443;51.442;10.564;2023-04-24T00:29:46;1.42;;;0.77;;
80133;SDS011;69443;51.442;10.564;2023-04-24T00:32:12;1.67;;;0.90;;
80133;SDS011;69443;51.442;10.564;2023-04-24T00:34:38;1.00;;;0.82;;
80133;SDS011;69443;51.442;10.564;2023-04-24T00:37:03;0.85;;;0.70;;
80133;SDS011;69443;51.442;10.564;2023-04-24T00:39:29;1.45;;;0.70;;
80133;SDS011;69443;51.442;10.564;2023-04-24T00:41:54;0.82;;;0.60;;
80133;SDS011;69443;51.442;10.564;2023-04-24T00:44:20;1.00;;;0.70;;
80133;SDS011;69443;51.442;10.564;2023-04-24T00:46:46;2.05;;;0.70;;
80133;SDS011;69443;51.442;10.564;2023-04-24T00:49:12;1.50;;;0.63;;
80133;SDS011;69443;51.442;10.564;2023-04-24T00:51:38;0.75;;;0.63;;
80133;SDS011;69443;51.442;10.564;2023-04-24T00:54:05;1.92;;;1.00;;
80133;SDS011;69443;51.442;10.564;2023-04-24T00:56:31;0.70;;;0.70;;
80133;SDS011;69443;51.442;10.564;2023-04-24T00:58:56;1.27;;;0.70;;
80133;SDS011;69443;51.442;10.564;2023-04-24T01:01:22;0.70;;;0.50;;
80133;SDS011;69443;51.442;10.564;2023-04-24T01:03:49;1.20;;;0.70;;
80133;SDS011;69443;51.442;10.564;2023-04-24T01:06:16;0.55;;;0.55;;
80133;SDS011;69443;51.442;10.564;2023-04-24T01:08:41;0.57;;;0.57;;
80133;SDS011;69443;51.442;10.564;2023-04-24T01:11:08;0.60;;;0.60;;
80133;SDS011;69443;51.442;10.564;2023-04-24T01:13:33;1.15;;;0.73;;
80133;SDS011;69443;51.442;10.564;2023-04-24T01:15:59;1.50;;;0.70;;
80133;SDS011;69443;51.442;10.564;2023-04-24T01:18:25;1.45;;;0.70;;
80133;SDS011;69443;51.442;10.564;2023-04-24T01:20:52;0.60;;;0.60;;
80133;SDS011;69443;51.442;10.564;2023-04-24T01:23:20;1.08;;;0.60;;
80133;SDS011;69443;51.442;10.564;2023-04-24T01:25:45;0.90;;;0.80;;
80133;SDS011;69443;51.442;10.564;2023-04-24T01:28:11;2.05;;;0.77;;
80133;SDS011;69443;51.442;10.564;2023-04-24T01:30:39;1.23;;;0.80;;
80133;SDS011;69443;51.442;10.564;2023-04-24T01:33:04;1.63;;;0.88;;
80133;SDS011;69443;51.442;10.564;2023-04-24T01:35:30;0.60;;;0.60;;
80133;SDS011;69443;51.442;10.564;2023-04-24T01:37:55;0.70;;;0.70;;
80133;SDS011;69443;51.442;10.564;2023-04-24T01:40:21;2.78;;;0.70;;
80133;SDS011;69443;51.442;10.564;2023-04-24T01:42:46;1.15;;;0.60;;
80133;SDS011;69443;51.442;10.564;2023-04-24T01:45:12;1.02;;;0.73;;
80133;SDS011;69443;51.442;10.564;2023-04-24T01:47:40;0.98;;;0.60;;
80133;SDS011;69443;51.442;10.564;2023-04-24T01:50:06;1.33;;;0.50;;
80133;SDS011;69443;51.442;10.564;2023-04-24T01:52:32;0.73;;;0.73;;
80133;SDS011;69443;51.442;10.564;2023-04-24T01:55:00;1.10;;;0.63;;
80133;SDS011;69443;51.442;10.564;2023-04-24T01:57:26;1.65;;;0.77;;
80133;SDS011;69443;51.442;10.564;2023-04-24T01:59:52;1.55;;;0.70;;
80133;SDS011;69443;51.442;10.564;2023-04-24T02:02:17;0.60;;;0.60;;
80133;SDS011;69443;51.442;10.564;2023-04-24T02:04:43;2.38;;;0.70;;
80133;SDS011;69443;51.442;10.564;2023-04-24T02:07:08;0.50;;;0.50;;
80133;SDS011;69443;51.442;10.564;2023-04-24T02:09:34;0.60;;;0.60;;
80133;SDS011;69443;51.442;10.564;2023-04-24T02:11:59;1.58;;;0.82;;
80133;SDS011;69443;51.442;10.564;2023-04-24T02:14:25;0.88;;;0.80;;
80133;SDS011;69443;51.442;10.564;2023-04-24T02:16:51;0.65;;;0.65;;
80133;SDS011;69443;51.442;10.564;2023-04-24T02:19:16;0.57;;;0.57;;
80133;SDS011;69443;51.442;10.564;2023-04-24T02:21:42;1.50;;;0.73;;
80133;SDS011;69443;51.442;10.564;2023-04-24T02:24:07;0.70;;;0.65;;
80133;SDS011;69443;51.442;10.564;2023-04-24T02:26:32;1.40;;;0.70;;
80133;SDS011;69443;51.442;10.564;2023-04-24T02:28:58;0.50;;;0.50;;
80133;SDS011;69443;51.442;10.564;2023-04-24T02:31:23;1.67;;;0.65;;
80133;SDS011;69443;51.442;10.564;2023-04-24T02:33:48;1.33;;;0.73;;
80133;SDS011;69443;51.442;10.564;2023-04-24T02:36:14;1.23;;;0.70;;
80133;SDS011;69443;51.442;10.564;2023-04-24T02:38:39;2.63;;;0.88;;
80133;SDS011;69443;51.442;10.564;2023-04-24T02:41:05;2.17;;;0.50;;
80133;SDS011;69443;51.442;10.564;2023-04-24T02:43:31;0.70;;;0.70;;
80133;SDS011;69443;51.442;10.564;2023-04-24T02:45:57;1.17;;;0.77;;
80133;SDS011;69443;51.442;10.564;2023-04-24T02:48:23;0.75;;;0.75;;
80133;SDS011;69443;51.442;10.564;2023-04-24T02:50:48;0.82;;;0.82;;
80133;SDS011;69443;51.442;10.564;2023-04-24T02:53:14;1.15;;;0.80;;
80133;SDS011;69443;51.442;10.564;2023-04-24T02:55:39;2.38;;;1.02;;
80133;SDS011;69443;51.442;10.564;2023-04-24T02:58:05;1.77;;;0.60;;
80133;SDS011;69443;51.442;10.564;2023-04-24T03:00:31;2.00;;;1.10;;
80133;SDS011;69443;51.442;10.564;2023-04-24T03:02:56;2.45;;;0.95;;
80133;SDS011;69443;51.442;10.564;2023-04-24T03:05:22;1.20;;;1.10;;
80133;SDS011;69443;51.442;10.564;2023-04-24T03:07:47;1.52;;;1.13;;
80133;SDS011;69443;51.442;10.564;2023-04-24T03:10:13;0.98;;;0.98;;
80133;SDS011;69443;51.442;10.564;2023-04-24T03:12:38;1.20;;;1.17;;
80133;SDS011;69443;51.442;10.564;2023-04-24T03:15:04;1.40;;;1.30;;
80133;SDS011;69443;51.442;10.564;2023-04-24T03:17:30;1.83;;;1.10;;
80133;SDS011;69443;51.442;10.564;2023-04-24T03:19:55;1.25;;;1.05;;
80133;SDS011;69443;51.442;10.564;2023-04-24T03:22:21;2.03;;;1.23;;
80133;SDS011;69443;51.442;10.564;2023-04-24T03:24:46;1.33;;;1.10;;
80133;SDS011;69443;51.442;10.564;2023-04-24T03:27:11;1.42;;;1.05;;
80133;SDS011;69443;51.442;10.564;2023-04-24T03:29:37;1.40;;;1.20;;
80133;SDS011;69443;51.442;10.564;2023-04-24T03:32:02;1.23;;;0.82;;
80133;SDS011;69443;51.442;10.564;2023-04-24T03:34:28;2.03;;;1.27;;
80133;SDS011;69443;51.442;10.564;2023-04-24T03:36:53;2.10;;;1.17;;
80133;SDS011;69443;51.442;10.564;2023-04-24T03:39:18;2.35;;;1.38;;
80133;SDS011;69443;51.442;10.564;2023-04-24T03:41:44;1.27;;;0.80;;
80133;SDS011;69443;51.442;10.564;2023-04-24T03:44:09;1.70;;;1.25;;
80133;SDS011;69443;51.442;10.564;2023-04-24T03:46:34;1.77;;;1.17;;
80133;SDS011;69443;51.442;10.564;2023-04-24T03:49:00;1.75;;;1.27;;
80133;SDS011;69443;51.442;10.564;2023-04-24T03:51:25;1.85;;;1.55;;
80133;SDS011;69443;51.442;10.564;2023-04-24T03:53:52;0.98;;;0.77;;
80133;SDS011;69443;51.442;10.564;2023-04-24T03:56:18;1.55;;;1.20;;
80133;SDS011;69443;51.442;10.564;2023-04-24T03:58:44;2.30;;;1.58;;
80133;SDS011;69443;51.442;10.564;2023-04-24T04:01:09;3.55;;;1.48;;
80133;SDS011;69443;51.442;10.564;2023-04-24T04:03:36;1.95;;;1.20;;
80133;SDS011;69443;51.442;10.564;2023-04-24T04:06:02;1.40;;;1.30;;
80133;SDS011;69443;51.442;10.564;2023-04-24T04:08:27;1.42;;;1.30;;
80133;SDS011;69443;51.442;10.564;2023-04-24T04:10:52;2.58;;;1.70;;
80133;SDS011;69443;51.442;10.564;2023-04-24T04:13:18;1.30;;;1.20;;
80133;SDS011;69443;51.442;10.564;2023-04-24T04:15:43;3.13;;;1.50;;
80133;SDS011;69443;51.442;10.564;2023-04-24T04:18:08;1.73;;;1.25;;
80133;SDS011;69443;51.442;10.564;2023-04-24T04:20:34;2.58;;;1.42;;
80133;SDS011;69443;51.442;10.564;2023-04-24T04:23:00;1.30;;;1.20;;
80133;SDS011;69443;51.442;10.564;2023-04-24T04:25:25;1.30;;;1.20;;
80133;SDS011;69443;51.442;10.564;2023-04-24T04:27:50;2.13;;;1.13;;
80133;SDS011;69443;51.442;10.564;2023-04-24T04:30:17;1.40;;;1.00;;
80133;SDS011;69443;51.442;10.564;2023-04-24T04:32:43;1.65;;;1.40;;
80133;SDS011;69443;51.442;10.564;2023-04-24T04:35:09;2.58;;;1.63;;
80133;SDS011;69443;51.442;10.564;2023-04-24T04:37:35;1.40;;;1.30;;
80133;SDS011;69443;51.442;10.564;2023-04-24T04:40:03;0.82;;;0.80;;
80133;SDS011;69443;51.442;10.564;2023-04-24T04:42:32;1.58;;;1.25;;
80133;SDS011;69443;51.442;10.564;2023-04-24T04:44:59;1.77;;;1.27;;
80133;SDS011;69443;51.442;10.564;2023-04-24T04:47:25;1.50;;;1.33;;
80133;SDS011;69443;51.442;10.564;2023-04-24T04:49:52;1.73;;;1.38;;
80133;SDS011;69443;51.442;10.564;2023-04-24T04:52:17;1.05;;;0.90;;
80133;SDS011;69443;51.442;10.564;2023-04-24T04:54:43;2.67;;;1.05;;
80133;SDS011;69443;51.442;10.564;2023-04-24T04:57:09;2.40;;;1.10;;
80133;SDS011;69443;51.442;10.564;2023-04-24T04:59:35;2.90;;;1.30;;
80133;SDS011;69443;51.442;10.564;2023-04-24T05:02:01;0.95;;;0.85;;
80133;SDS011;69443;51.442;10.564;2023-04-24T05:04:26;1.95;;;1.10;;
80133;SDS011;69443;51.442;10.564;2023-04-24T05:06:52;1.77;;;0.70;;
80133;SDS011;69443;51.442;10.564;2023-04-24T05:09:17;2.03;;;1.30;;
80133;SDS011;69443;51.442;10.564;2023-04-24T05:11:43;1.58;;;1.10;;
80133;SDS011;69443;51.442;10.564;2023-04-24T05:14:08;2.45;;;1.10;;
80133;SDS011;69443;51.442;10.564;2023-04-24T05:16:34;0.93;;;0.73;;
80133;SDS011;69443;51.442;10.564;2023-04-24T05:18:59;1.30;;;1.05;;
80133;SDS011;69443;51.442;10.564;2023-04-24T05:21:25;1.27;;;1.10;;
80133;SDS011;69443;51.442;10.564;2023-04-24T05:23:51;1.23;;;1.05;;
80133;SDS011;69443;51.442;10.564;2023-04-24T05:26:17;1.02;;;0.90;;
80133;SDS011;69443;51.442;10.564;2023-04-24T05:28:42;6.65;;;1.73;;
80133;SDS011;69443;51.442;10.564;2023-04-24T05:31:08;1.95;;;1.00;;
80133;SDS011;69443;51.442;10.564;2023-04-24T05:33:33;1.77;;;1.00;;
80133;SDS011;69443;51.442;10.564;2023-04-24T05:35:58;1.10;;;0.85;;
80133;SDS011;69443;51.442;10.564;2023-04-24T05:38:24;1.10;;;0.90;;
80133;SDS011;69443;51.442;10.564;2023-04-24T05:40:49;1.65;;;1.00;;
80133;SDS011;69443;51.442;10.564;2023-04-24T05:43:14;1.08;;;0.98;;
80133;SDS011;69443;51.442;10.564;2023-04-24T05:45:40;1.60;;;1.00;;
80133;SDS011;69443;51.442;10.564;2023-04-24T05:48:05;1.63;;;0.80;;
80133;SDS011;69443;51.442;10.564;2023-04-24T05:50:31;0.90;;;0.80;;
80133;SDS011;69443;51.442;10.564;2023-04-24T05:52:56;1.70;;;0.77;;
80133;SDS011;69443;51.442;10.564;2023-04-24T05:55:25;1.67;;;0.82;;
80133;SDS011;69443;51.442;10.564;2023-04-24T05:57:50;1.48;;;0.90;;
80133;SDS011;69443;51.442;10.564;2023-04-24T06:00:16;1.40;;;0.60;;
80133;SDS011;69443;51.442;10.564;2023-04-24T06:02:44;0.88;;;0.70;;
80133;SDS011;69443;51.442;10.564;2023-04-24T06:05:10;1.00;;;0.90;;
80133;SDS011;69443;51.442;10.564;2023-04-24T06:07:36;1.10;;;0.70;;
80133;SDS011;69443;51.442;10.564;2023-04-24T06:10:01;1.02;;;0.70;;
80133;SDS011;69443;51.442;10.564;2023-04-24T06:12:26;0.90;;;0.65;;
80133;SDS011;69443;51.442;10.564;2023-04-24T06:14:52;0.73;;;0.73;;
80133;SDS011;69443;51.442;10.564;2023-04-24T06:17:19;0.60;;;0.45;;
80133;SDS011;69443;51.442;10.564;2023-04-24T06:19:44;0.77;;;0.77;;
80133;SDS011;69443;51.442;10.564;2023-04-24T06:22:10;0.50;;;0.50;;
80133;SDS011;69443;51.442;10.564;2023-04-24T06:24:35;1.83;;;0.68;;
80133;SDS011;69443;51.442;10.564;2023-04-24T06:27:01;0.93;;;0.70;;
80133;SDS011;69443;51.442;10.564;2023-04-24T06:29:27;2.47;;;0.65;;
80133;SDS011;69443;51.442;10.564;2023-04-24T06:31:52;0.85;;;0.65;;
80133;SDS011;69443;51.442;10.564;2023-04-24T06:34:18;0.85;;;0.68;;
80133;SDS011;69443;51.442;10.564;2023-04-24T06:36:43;1.40;;;0.60;;
80133;SDS011;69443;51.442;10.564;2023-04-24T06:39:09;0.65;;;0.65;;
80133;SDS011;69443;51.442;10.564;2023-04-24T06:41:34;0.68;;;0.65;;
80133;SDS011;69443;51.442;10.564;2023-04-24T06:44:00;1.58;;;0.80;;
80133;SDS011;69443;51.442;10.564;2023-04-24T06:46:26;0.57;;;0.57;;
80133;SDS011;69443;51.442;10.564;2023-04-24T06:48:52;0.90;;;0.80;;
80133;SDS011;69443;51.442;10.564;2023-04-24T06:51:21;0.65;;;0.60;;
80133;SDS011;69443;51.442;10.564;2023-04-24T06:53:50;0.73;;;0.60;;
80133;SDS011;69443;51.442;10.564;2023-04-24T06:56:16;1.50;;;0.77;;
80133;SDS011;69443;51.442;10.564;2023-04-24T06:58:42;1.20;;;0.80;;
80133;SDS011;69443;51.442;10.564;2023-04-24T07:01:07;0.57;;;0.52;;
80133;SDS011;69443;51.442;10.564;2023-04-24T07:03:32;0.65;;;0.45;;
80133;SDS011;69443;51.442;10.564;2023-04-24T07:05:58;0.80;;;0.80;;
80133;SDS011;69443;51.442;10.564;2023-04-24T07:08:23;0.60;;;0.60;;
80133;SDS011;69443;51.442;10.564;2023-04-24T07:10:49;0.63;;;0.60;;
80133;SDS011;69443;51.442;10.564;2023-04-24T07:13:15;1.60;;;0.77;;
80133;SDS011;69443;51.442;10.564;2023-04-24T07:15:41;1.13;;;0.70;;
80133;SDS011;69443;51.442;10.564;2023-04-24T07:18:06;1.50;;;0.70;;
80133;SDS011;69443;51.442;10.564;2023-04-24T07:20:32;1.20;;;0.70;;
80133;SDS011;69443;51.442;10.564;2023-04-24T07:22:58;1.27;;;0.80;;
80133;SDS011;69443;51.442;10.564;2023-04-24T07:25:23;1.33;;;0.70;;
80133;SDS011;69443;51.442;10.564;2023-04-24T07:27:49;0.70;;;0.70;;
80133;SDS011;69443;51.442;10.564;2023-04-24T07:30:14;2.15;;;0.90;;
80133;SDS011;69443;51.442;10.564;2023-04-24T07:32:40;2.97;;;0.80;;
80133;SDS011;69443;51.442;10.564;2023-04-24T07:35:05;0.93;;;0.82;;
80133;SDS011;69443;51.442;10.564;2023-04-24T07:37:31;0.40;;;0.40;;
80133;SDS011;69443;51.442;10.564;2023-04-24T07:39:56;0.60;;;0.60;;
80133;SDS011;69443;51.442;10.564;2023-04-24T07:42:22;1.00;;;0.77;;
80133;SDS011;69443;51.442;10.564;2023-04-24T07:44:47;1.00;;;0.80;;
80133;SDS011;69443;51.442;10.564;2023-04-24T07:47:13;0.75;;;0.45;;
80133;SDS011;69443;51.442;10.564;2023-04-24T07:49:41;0.70;;;0.70;;
80133;SDS011;69443;51.442;10.564;2023-04-24T07:52:07;1.38;;;0.80;;
80133;SDS011;69443;51.442;10.564;2023-04-24T07:54:32;0.70;;;0.70;;
80133;SDS011;69443;51.442;10.564;2023-04-24T07:56:58;0.75;;;0.60;;
80133;SDS011;69443;51.442;10.564;2023-04-24T07:59:23;1.63;;;1.00;;
80133;SDS011;69443;51.442;10.564;2023-04-24T08:01:49;0.95;;;0.95;;
80133;SDS011;69443;51.442;10.564;2023-04-24T08:04:14;1.45;;;1.33;;
80133;SDS011;69443;51.442;10.564;2023-04-24T08:06:40;1.70;;;0.82;;
80133;SDS011;69443;51.442;10.564;2023-04-24T08:09:05;0.82;;;0.75;;
80133;SDS011;69443;51.442;10.564;2023-04-24T08:11:31;1.20;;;1.10;;
80133;SDS011;69443;51.442;10.564;2023-04-24T08:13:57;1.42;;;0.80;;
80133;SDS011;69443;51.442;10.564;2023-04-24T08:16:22;1.42;;;1.00;;
80133;SDS011;69443;51.442;10.564;2023-04-24T08:18:50;0.75;;;0.75;;
80133;SDS011;69443;51.442;10.564;2023-04-24T08:21:16;1.60;;;0.93;;
80133;SDS011;69443;51.442;10.564;2023-04-24T08:23:45;2.00;;;1.02;;
80133;SDS011;69443;51.442;10.564;2023-04-24T08:26:11;1.48;;;1.35;;
80133;SDS011;69443;51.442;10.564;2023-04-24T08:28:37;1.70;;;1.33;;
80133;SDS011;69443;51.442;10.564;2023-04-24T08:31:03;0.93;;;0.80;;
80133;SDS011;69443;51.442;10.564;2023-04-24T08:33:28;1.13;;;1.02;;
80133;SDS011;69443;51.442;10.564;2023-04-24T08:35:59;2.28;;;1.20;;
80133;SDS011;69443;51.442;10.564;2023-04-24T08:38:31;1.05;;;0.95;;
80133;SDS011;69443;51.442;10.564;2023-04-24T08:40:58;5.88;;;1.15;;
80133;SDS011;69443;51.442;10.564;2023-04-24T08:43:24;2.58;;;1.45;;
80133;SDS011;69443;51.442;10.564;2023-04-24T08:45:50;2.00;;;1.17;;
80133;SDS011;69443;51.442;10.564;2023-04-24T08:48:16;1.58;;;1.40;;
80133;SDS011;69443;51.442;10.564;2023-04-24T08:50:42;1.95;;;1.40;;
80133;SDS011;69443;51.442;10.564;2023-04-24T08:53:09;0.85;;;0.85;;
80133;SDS011;69443;51.442;10.564;2023-04-24T08:55:36;1.17;;;0.80;;
80133;SDS011;69443;51.442;10.564;2023-04-24T08:58:02;1.17;;;1.08;;
80133;SDS011;69443;51.442;10.564;2023-04-24T09:00:28;1.40;;;0.70;;
80133;SDS011;69443;51.442;10.564;2023-04-24T09:02:54;1.40;;;1.10;;
80133;SDS011;69443;51.442;10.564;2023-04-24T09:05:21;2.00;;;1.20;;
80133;SDS011;69443;51.442;10.564;2023-04-24T09:07:51;1.48;;;1.38;;
80133;SDS011;69443;51.442;10.564;2023-04-24T09:10:19;1.13;;;1.10;;
80133;SDS011;69443;51.442;10.564;2023-04-24T09:12:46;1.20;;;1.10;;
80133;SDS011;69443;51.442;10.564;2023-04-24T09:15:11;2.15;;;1.70;;
80133;SDS011;69443;51.442;10.564;2023-04-24T09:17:38;1.27;;;1.15;;
80133;SDS011;69443;51.442;10.564;2023-04-24T09:20:03;2.13;;;1.40;;
80133;SDS011;69443;51.442;10.564;2023-04-24T09:22:30;1.67;;;1.42;;
80133;SDS011;69443;51.442;10.564;2023-04-24T09:25:05;1.42;;;1.33;;
80133;SDS011;69443;51.442;10.564;2023-04-24T09:27:33;2.42;;;1.52;;
80133;SDS011;69443;51.442;10.564;2023-04-24T09:29:59;1.83;;;1.55;;
80133;SDS011;69443;51.442;10.564;2023-04-24T09:32:25;1.15;;;1.10;;
80133;SDS011;69443;51.442;10.564;2023-04-24T09:37:37;1.75;;;1.10;;
80133;SDS011;69443;51.442;10.564;2023-04-24T09:40:14;2.95;;;1.63;;
80133;SDS011;69443;51.442;10.564;2023-04-24T09:42:53;0.77;;;0.77;;
80133;SDS011;69443;51.442;10.564;2023-04-24T09:45:27;1.60;;;1.50;;
80133;SDS011;69443;51.442;10.564;2023-04-24T09:47:53;1.50;;;1.40;;
80133;SDS011;69443;51.442;10.564;2023-04-24T09:50:19;2.67;;;1.67;;
80133;SDS011;69443;51.442;10.564;2023-04-24T09:52:45;3.25;;;1.60;;
80133;SDS011;69443;51.442;10.564;2023-04-24T09:55:20;1.90;;;1.70;;
80133;SDS011;69443;51.442;10.564;2023-04-24T09:57:49;1.40;;;1.10;;
80133;SDS011;69443;51.442;10.564;2023-04-24T10:00:19;1.45;;;1.02;;
80133;SDS011;69443;51.442;10.564;2023-04-24T10:03:05;2.15;;;0.98;;
80133;SDS011;69443;51.442;10.564;2023-04-24T10:08:01;1.80;;;0.88;;
80133;SDS011;69443;51.442;10.564;2023-04-24T10:10:28;2.55;;;1.75;;
80133;SDS011;69443;51.442;10.564;2023-04-24T10:12:54;5.00;;;1.65;;
80133;SDS011;69443;51.442;10.564;2023-04-24T10:15:20;1.95;;;1.80;;
80133;SDS011;69443;51.442;10.564;2023-04-24T10:17:48;1.33;;;1.23;;
80133;SDS011;69443;51.442;10.564;2023-04-24T10:20:18;2.45;;;1.65;;
80133;SDS011;69443;51.442;10.564;2023-04-24T10:22:46;1.73;;;1.63;;
80133;SDS011;69443;51.442;10.564;2023-04-24T10:25:15;3.33;;;1.80;;
80133;SDS011;69443;51.442;10.564;2023-04-24T10:27:42;2.55;;;1.70;;
80133;SDS011;69443;51.442;10.564;2023-04-24T10:30:08;1.90;;;1.70;;
80133;SDS011;69443;51.442;10.564;2023-04-24T10:32:36;1.95;;;1.58;;
80133;SDS011;69443;51.442;10.564;2023-04-24T10:35:01;3.53;;;1.55;;
80133;SDS011;69443;51.442;10.564;2023-04-24T10:37:27;3.05;;;1.30;;
80133;SDS011;69443;51.442;10.564;2023-04-24T10:39:53;2.55;;;1.92;;
80133;SDS011;69443;51.442;10.564;2023-04-24T10:42:21;2.55;;;1.67;;
80133;SDS011;69443;51.442;10.564;2023-04-24T10:44:47;2.55;;;2.03;;
80133;SDS011;69443;51.442;10.564;2023-04-24T10:47:14;1.10;;;1.02;;
80133;SDS011;69443;51.442;10.564;2023-04-24T10:49:41;2.10;;;1.70;;
80133;SDS011;69443;51.442;10.564;2023-04-24T10:52:08;1.50;;;1.40;;
80133;SDS011;69443;51.442;10.564;2023-04-24T10:54:34;1.77;;;1.65;;
80133;SDS011;69443;51.442;10.564;2023-04-24T10:59:45;1.88;;;1.10;;
80133;SDS011;69443;51.442;10.564;2023-04-24T11:02:14;1.50;;;1.40;;
80133;SDS011;69443;51.442;10.564;2023-04-24T11:04:40;2.95;;;1.58;;
80133;SDS011;69443;51.442;10.564;2023-04-24T11:07:08;2.00;;;1.48;;
80133;SDS011;69443;51.442;10.564;2023-04-24T11:09:34;1.80;;;1.70;;
80133;SDS011;69443;51.442;10.564;2023-04-24T11:12:05;2.00;;;1.58;;
80133;SDS011;69443;51.442;10.564;2023-04-24T11:20:00;1.50;;;1.40;;
80133;SDS011;69443;51.442;10.564;2023-04-24T11:22:27;3.00;;;1.50;;
80133;SDS011;69443;51.442;10.564;2023-04-24T11:24:56;0.90;;;0.90;;
80133;SDS011;69443;51.442;10.564;2023-04-24T11:27:27;1.20;;;1.00;;
80133;SDS011;69443;51.442;10.564;2023-04-24T11:30:03;2.22;;;1.20;;
80133;SDS011;69443;51.442;10.564;2023-04-24T11:32:39;1.63;;;0.90;;
80133;SDS011;69443;51.442;10.564;2023-04-24T11:37:39;1.20;;;1.10;;
80133;SDS011;69443;51.442;10.564;2023-04-24T11:40:07;1.50;;;1.27;;
80133;SDS011;69443;51.442;10.564;2023-04-24T11:42:36;2.45;;;1.20;;
80133;SDS011;69443;51.442;10.564;2023-04-24T11:50:02;1.13;;;1.02;;
80133;SDS011;69443;51.442;10.564;2023-04-24T11:52:29;0.95;;;0.88;;
80133;SDS011;69443;51.442;10.564;2023-04-24T11:54:55;2.10;;;1.00;;
80133;SDS011;69443;51.442;10.564;2023-04-24T11:57:21;2.10;;;1.80;;
80133;SDS011;69443;51.442;10.564;2023-04-24T11:59:48;1.27;;;1.17;;
80133;SDS011;69443;51.442;10.564;2023-04-24T12:02:23;2.20;;;1.00;;
80133;SDS011;69443;51.442;10.564;2023-04-24T12:04:49;2.05;;;0.93;;
80133;SDS011;69443;51.442;10.564;2023-04-24T12:07:15;0.68;;;0.60;;
80133;SDS011;69443;51.442;10.564;2023-04-24T12:09:44;0.68;;;0.68;;
80133;SDS011;69443;51.442;10.564;2023-04-24T12:12:15;0.80;;;0.80;;
80133;SDS011;69443;51.442;10.564;2023-04-24T12:14:42;0.60;;;0.60;;
80133;SDS011;69443;51.442;10.564;2023-04-24T12:17:15;2.10;;;0.70;;
80133;SDS011;69443;51.442;10.564;2023-04-24T12:19:48;1.30;;;0.93;;
80133;SDS011;69443;51.442;10.564;2023-04-24T12:22:15;1.33;;;0.60;;
80133;SDS011;69443;51.442;10.564;2023-04-24T12:24:59;0.82;;;0.82;;
80133;SDS011;69443;51.442;10.564;2023-04-24T12:27:32;0.70;;;0.70;;
80133;SDS011;69443;51.442;10.564;2023-04-24T12:30:02;1.20;;;1.10;;
80133;SDS011;69443;51.442;10.564;2023-04-24T12:32:29;1.30;;;0.90;;
80133;SDS011;69443;51.442;10.564;2023-04-24T12:34:55;0.70;;;0.70;;
80133;SDS011;69443;51.442;10.564;2023-04-24T12:37:22;0.90;;;0.90;;
80133;SDS011;69443;51.442;10.564;2023-04-24T12:42:32;1.80;;;1.20;;
80133;SDS011;69443;51.442;10.564;2023-04-24T12:45:03;0.90;;;0.90;;
80133;SDS011;69443;51.442;10.564;2023-04-24T12:47:30;0.57;;;0.57;;
80133;SDS011;69443;51.442;10.564;2023-04-24T12:49:56;1.30;;;0.60;;
80133;SDS011;69443;51.442;10.564;2023-04-24T12:52:22;0.52;;;0.52;;
80133;SDS011;69443;51.442;10.564;2023-04-24T12:54:54;1.23;;;0.93;;
80133;SDS011;69443;51.442;10.564;2023-04-24T12:57:22;0.80;;;0.80;;
80133;SDS011;69443;51.442;10.564;2023-04-24T12:59:53;0.88;;;0.55;;
80133;SDS011;69443;51.442;10.564;2023-04-24T13:02:20;0.60;;;0.60;;
80133;SDS011;69443;51.442;10.564;2023-04-24T13:04:47;0.73;;;0.60;;
80133;SDS011;69443;51.442;10.564;2023-04-24T13:07:13;0.52;;;0.40;;
80133;SDS011;69443;51.442;10.564;2023-04-24T13:09:39;0.50;;;0.50;;
80133;SDS011;69443;51.442;10.564;2023-04-24T13:12:05;0.45;;;0.45;;
80133;SDS011;69443;51.442;10.564;2023-04-24T13:14:31;0.50;;;0.50;;
80133;SDS011;69443;51.442;10.564;2023-04-24T13:16:57;0.45;;;0.45;;
80133;SDS011;69443;51.442;10.564;2023-04-24T13:19:24;1.58;;;0.50;;
80133;SDS011;69443;51.442;10.564;2023-04-24T13:21:51;0.63;;;0.40;;
80133;SDS011;69443;51.442;10.564;2023-04-24T13:24:16;0.38;;;0.38;;
80133;SDS011;69443;51.442;10.564;2023-04-24T13:26:42;0.40;;;0.30;;
80133;SDS011;69443;51.442;10.564;2023-04-24T13:29:08;0.30;;;0.30;;
80133;SDS011;69443;51.442;10.564;2023-04-24T13:31:34;0.30;;;0.30;;
80133;SDS011;69443;51.442;10.564;2023-04-24T13:34:00;0.55;;;0.40;;
80133;SDS011;69443;51.442;10.564;2023-04-24T13:36:25;0.55;;;0.20;;
80133;SDS011;69443;51.442;10.564;2023-04-24T13:38:51;0.20;;;0.20;;
80133;SDS011;69443;51.442;10.564;2023-04-24T13:41:18;0.35;;;0.30;;
80133;SDS011;69443;51.442;10.564;2023-04-24T13:43:44;0.10;;;0.10;;
80133;SDS011;69443;51.442;10.564;2023-04-24T13:46:09;0.20;;;0.20;;
80133;SDS011;69443;51.442;10.564;2023-04-24T13:48:35;0.20;;;0.20;;
80133;SDS011;69443;51.442;10.564;2023-04-24T13:51:00;0.20;;;0.20;;
80133;SDS011;69443;51.442;10.564;2023-04-24T13:53:25;0.28;;;0.28;;
80133;SDS011;69443;51.442;10.564;2023-04-24T13:55:51;0.20;;;0.20;;
80133;SDS011;69443;51.442;10.564;2023-04-24T13:58:16;0.28;;;0.28;;
80133;SDS011;69443;51.442;10.564;2023-04-24T14:00:42;0.20;;;0.20;;
80133;SDS011;69443;51.442;10.564;2023-04-24T14:03:07;0.52;;;0.52;;
80133;SDS011;69443;51.442;10.564;2023-04-24T14:05:33;0.20;;;0.20;;
80133;SDS011;69443;51.442;10.564;2023-04-24T14:07:58;0.45;;;0.20;;
80133;SDS011;69443;51.442;10.564;2023-04-24T14:10:23;0.20;;;0.20;;
80133;SDS011;69443;51.442;10.564;2023-04-24T14:12:49;0.28;;;0.20;;
80133;SDS011;69443;51.442;10.564;2023-04-24T14:15:15;0.25;;;0.22;;
80133;SDS011;69443;51.442;10.564;2023-04-24T14:17:41;0.10;;;0.10;;
80133;SDS011;69443;51.442;10.564;2023-04-24T14:20:07;1.38;;;0.20;;
80133;SDS011;69443;51.442;10.564;2023-04-24T14:22:33;0.43;;;0.28;;
80133;SDS011;69443;51.442;10.564;2023-04-24T14:24:59;0.20;;;0.20;;
80133;SDS011;69443;51.442;10.564;2023-04-24T14:27:24;0.20;;;0.20;;
80133;SDS011;69443;51.442;10.564;2023-04-24T14:29:51;0.30;;;0.30;;
80133;SDS011;69443;51.442;10.564;2023-04-24T14:32:16;0.38;;;0.35;;
80133;SDS011;69443;51.442;10.564;2023-04-24T14:34:42;0.30;;;0.30;;
80133;SDS011;69443;51.442;10.564;2023-04-24T14:37:07;0.30;;;0.30;;
80133;SDS011;69443;51.442;10.564;2023-04-24T14:39:33;0.30;;;0.30;;
80133;SDS011;69443;51.442;10.564;2023-04-24T14:41:58;0.20;;;0.20;;
80133;SDS011;69443;51.442;10.564;2023-04-24T14:44:24;0.20;;;0.20;;
80133;SDS011;69443;51.442;10.564;2023-04-24T14:46:49;0.22;;;0.22;;
80133;SDS011;69443;51.442;10.564;2023-04-24T14:49:15;0.30;;;0.30;;
80133;SDS011;69443;51.442;10.564;2023-04-24T14:51:40;0.30;;;0.30;;